KRNT - Renton
Updated: Wed, 17-Jan-2018 1:53am PST

 Wind from calm
Wind: Calm
Temperature: 45°F , 7°C
Dew Point: 39°F , 4°C
Humidity: 81%
Barometer: 30.08 inHg , 1018.6 hPa
Visibility: 10 miles , 16 km
2018/01/17 09:53 KRNT 170953Z AUTO 00000KT 10SM CLR 07/04 A3008 RMK AO2 SLP191 T00670039
KBFI - Seattle-Boeing
Updated: Wed, 17-Jan-2018 1:53am PST

 Wind from calm
Wind: Calm
Temperature: 43°F , 6°C
Dew Point: 41°F , 5°C
Humidity: 93%
Barometer: 30.09 inHg , 1019 hPa
Visibility: 10 miles , 16 km
2018/01/17 09:53 KBFI 170953Z 00000KT 10SM CLR 06/05 A3009 RMK AO2 SLP187 T00610050
 
KSEA - Seattle
Updated: Wed, 17-Jan-2018 1:53am PST

 Wind from ESE
Wind: ESE 9 mph , 15 km/h
Temperature: 46°F , 8°C
Wind Chill: 41°F , 5°C
Dew Point: 36°F , 2°C
Humidity: 66%
Barometer: 30.08 inHg , 1018.6 hPa
Visibility: 10 miles , 16 km
Cloud details: 14000 ft
2018/01/17 09:53 KSEA 170953Z 11008KT 10SM OVC140 08/02 A3008 RMK AO2 SLP192 T00830017
KSMP - Stampede Pass
Updated: Tue, 16-Jan-2018 3:03pm PST
NOT Current

 Wind from calm
Wind: Calm
Temperature: 37°F , 3°C
Dew Point: 34°F , 1°C
Humidity: 87%
Barometer: 30.20 inHg , 1022.7 hPa
Visibility: 10 miles , 16 km
Cloud details: 1500 ft
2200 ft
2800 ft
2018/01/16 23:03 KSMP 162303Z AUTO 00000KT 10SM FEW015 SCT022 BKN028 03/01 A3020 RMK AO2 T00280011 $